createdAt,value
2023-05-10T00:01:32.311Z,13.59
2023-05-10T00:03:59.851Z,13.57
2023-05-10T00:06:27.811Z,13.57
2023-05-10T00:08:55.295Z,13.64
2023-05-10T00:11:24.128Z,13.55
2023-05-10T00:13:54.322Z,13.50
2023-05-10T00:16:21.994Z,13.39
2023-05-10T00:18:49.507Z,13.34
2023-05-10T00:21:16.983Z,13.20
2023-05-10T00:23:44.463Z,13.06
2023-05-10T00:26:12.008Z,12.95
2023-05-10T00:28:42.317Z,12.95
2023-05-10T00:31:09.835Z,12.99
2023-05-10T00:33:37.344Z,12.95
2023-05-10T00:36:05.387Z,13.05
2023-05-10T00:38:33.027Z,13.04
2023-05-10T00:41:00.529Z,12.94
2023-05-10T00:43:31.802Z,12.95
2023-05-10T00:46:01.455Z,12.96
2023-05-10T00:48:30.644Z,12.93
2023-05-10T00:50:58.277Z,12.82
2023-05-10T00:53:26.499Z,12.79
2023-05-10T00:55:54.080Z,12.92
2023-05-10T00:58:21.906Z,12.93
2023-05-10T01:00:49.992Z,12.97
2023-05-10T01:03:19.066Z,12.88
2023-05-10T01:05:46.672Z,12.87
2023-05-10T01:08:14.206Z,12.88
2023-05-10T01:10:42.090Z,13.02
2023-05-10T01:13:09.730Z,12.93
2023-05-10T01:15:37.665Z,12.92
2023-05-10T01:18:05.385Z,12.91
2023-05-10T01:20:38.141Z,12.94
2023-05-10T01:23:26.813Z,12.91
2023-05-10T01:26:09.841Z,12.76
2023-05-10T01:28:53.969Z,12.66
2023-05-10T01:31:25.273Z,12.73
2023-05-10T01:33:57.782Z,12.77
2023-05-10T01:36:29.685Z,12.82
2023-05-10T01:39:01.276Z,12.71
2023-05-10T01:41:35.220Z,12.70
2023-05-10T01:44:07.116Z,12.74
2023-05-10T01:46:37.700Z,12.77
2023-05-10T01:49:11.472Z,12.74
2023-05-10T01:51:42.062Z,12.64
2023-05-10T01:54:10.600Z,12.66
2023-05-10T01:56:39.758Z,12.67
2023-05-10T01:59:11.254Z,12.69
2023-05-10T02:01:39.421Z,12.61
2023-05-10T02:04:09.856Z,12.65
2023-05-10T02:06:38.092Z,12.64
2023-05-10T02:09:06.186Z,12.68
2023-05-10T02:11:34.216Z,12.70
2023-05-10T02:14:02.299Z,12.69
2023-05-10T02:16:31.950Z,12.70
2023-05-10T02:19:01.302Z,12.68
2023-05-10T02:21:30.508Z,12.68
2023-05-10T02:23:59.217Z,12.71
2023-05-10T02:26:27.533Z,12.71
2023-05-10T02:28:55.711Z,12.58
2023-05-10T02:31:23.900Z,12.58
2023-05-10T02:33:52.497Z,12.62
2023-05-10T02:36:22.144Z,12.69
2023-05-10T02:38:51.855Z,12.72
2023-05-10T02:41:20.217Z,12.69
2023-05-10T02:43:49.331Z,12.59
2023-05-10T02:46:16.863Z,12.58
2023-05-10T02:48:44.352Z,12.62
2023-05-10T02:51:14.758Z,12.64
2023-05-10T02:53:43.302Z,12.58
2023-05-10T02:56:16.083Z,12.59
2023-05-10T02:58:43.571Z,12.58
2023-05-10T03:01:11.459Z,12.49
2023-05-10T03:03:39.659Z,12.51
2023-05-10T03:06:07.424Z,12.49
2023-05-10T03:08:35.600Z,12.54
2023-05-10T03:11:23.392Z,12.49
2023-05-10T03:13:59.059Z,12.47
2023-05-10T03:16:29.585Z,12.49
2023-05-10T03:19:04.665Z,12.58
2023-05-10T03:21:32.847Z,12.61
2023-05-10T03:24:07.589Z,12.65
2023-05-10T03:26:39.034Z,12.67
2023-05-10T03:29:12.623Z,12.63
2023-05-10T03:31:40.290Z,12.64
2023-05-10T03:34:08.134Z,12.56
2023-05-10T03:36:36.033Z,12.52
2023-05-10T03:39:03.708Z,12.49
2023-05-10T03:41:31.723Z,12.62
2023-05-10T03:44:00.710Z,12.49
2023-05-10T03:46:29.872Z,12.47
2023-05-10T03:48:57.399Z,12.42
2023-05-10T03:51:28.891Z,12.42
2023-05-10T03:53:56.486Z,12.41
2023-05-10T03:56:24.163Z,12.38
2023-05-10T03:58:51.678Z,12.31
2023-05-10T04:01:20.536Z,12.39
2023-05-10T04:03:48.247Z,12.36
2023-05-10T04:06:16.065Z,12.35
2023-05-10T04:08:43.568Z,12.32
2023-05-10T04:11:12.414Z,12.34
2023-05-10T04:13:39.983Z,12.29
2023-05-10T04:16:07.999Z,12.31
2023-05-10T04:18:36.850Z,12.39
2023-05-10T04:21:04.537Z,12.31
2023-05-10T04:23:32.002Z,12.30
2023-05-10T04:26:02.887Z,12.26
2023-05-10T04:28:30.464Z,12.21
2023-05-10T04:31:03.373Z,12.24
2023-05-10T04:33:30.976Z,12.18
2023-05-10T04:35:59.889Z,12.18
2023-05-10T04:38:27.852Z,12.17
2023-05-10T04:40:55.781Z,12.18
2023-05-10T04:43:23.451Z,12.13
2023-05-10T04:45:51.242Z,12.13
2023-05-10T04:48:18.792Z,12.04
2023-05-10T04:50:46.277Z,12.13
2023-05-10T04:53:16.053Z,12.16
2023-05-10T04:55:43.604Z,12.21
2023-05-10T04:58:11.194Z,12.22
2023-05-10T05:00:38.680Z,12.27
2023-05-10T05:03:06.280Z,12.32
2023-05-10T05:05:33.865Z,12.37
2023-05-10T05:08:01.718Z,12.37
2023-05-10T05:10:30.878Z,12.40
2023-05-10T05:12:58.404Z,12.50
2023-05-10T05:15:25.943Z,12.50
2023-05-10T05:17:53.522Z,12.48
2023-05-10T05:20:21.091Z,12.55
2023-05-10T05:22:48.577Z,12.60
2023-05-10T05:25:16.269Z,12.49
2023-05-10T05:27:45.148Z,12.58
2023-05-10T05:30:13.490Z,12.65
2023-05-10T05:32:41.057Z,12.56
2023-05-10T05:35:09.361Z,12.59
2023-05-10T05:37:38.398Z,12.66
2023-05-10T05:40:07.007Z,12.62
2023-05-10T05:42:34.537Z,12.70
2023-05-10T05:45:03.357Z,12.73
2023-05-10T05:47:31.016Z,12.68
2023-05-10T05:49:58.552Z,12.61
2023-05-10T05:52:26.076Z,12.67
2023-05-10T05:54:53.628Z,12.66
2023-05-10T05:57:21.151Z,12.62
2023-05-10T05:59:48.768Z,12.64
2023-05-10T06:02:17.676Z,12.64
2023-05-10T06:04:45.204Z,12.58
2023-05-10T06:07:12.806Z,12.48
2023-05-10T06:09:40.339Z,12.51
2023-05-10T06:12:07.969Z,12.29
2023-05-10T06:14:35.444Z,12.24
2023-05-10T06:17:05.035Z,12.10
2023-05-10T06:19:35.577Z,12.00
2023-05-10T06:22:03.536Z,11.96
2023-05-10T06:24:31.068Z,11.93
2023-05-10T06:27:01.145Z,11.84
2023-05-10T06:29:28.743Z,11.73
2023-05-10T06:31:56.383Z,11.54
2023-05-10T06:34:24.011Z,11.49
2023-05-10T06:36:52.924Z,11.51
2023-05-10T06:39:20.739Z,11.44
2023-05-10T06:41:48.236Z,11.48
2023-05-10T06:44:15.782Z,11.35
2023-05-10T06:46:43.551Z,11.28
2023-05-10T06:49:11.112Z,11.22
2023-05-10T06:51:38.714Z,11.20
2023-05-10T06:54:07.789Z,11.23
2023-05-10T06:56:35.375Z,11.24
2023-05-10T06:59:02.960Z,11.18
2023-05-10T07:01:30.491Z,11.18
2023-05-10T07:03:57.978Z,11.30
2023-05-10T07:06:33.555Z,11.30
2023-05-10T07:09:01.579Z,11.29
2023-05-10T07:11:30.614Z,11.34
2023-05-10T07:13:58.115Z,11.37
2023-05-10T07:16:25.823Z,11.30
2023-05-10T07:18:54.499Z,11.20
2023-05-10T07:21:22.119Z,11.15
2023-05-10T07:23:49.618Z,11.27
2023-05-10T07:26:17.188Z,11.29
2023-05-10T07:28:45.992Z,11.13
2023-05-10T07:31:13.516Z,11.23
2023-05-10T07:33:40.996Z,11.22
2023-05-10T07:36:08.922Z,11.18
2023-05-10T07:38:37.542Z,11.09
2023-05-10T07:41:06.899Z,11.05
2023-05-10T07:43:34.466Z,11.13
2023-05-10T07:46:03.672Z,11.12
2023-05-10T07:48:31.249Z,11.10
2023-05-10T07:50:58.754Z,11.12
2023-05-10T07:53:27.745Z,11.26
2023-05-10T07:55:56.695Z,11.37
2023-05-10T07:58:24.286Z,11.35
2023-05-10T08:00:51.828Z,11.27
2023-05-10T08:03:20.807Z,11.25
2023-05-10T08:05:49.626Z,11.27
2023-05-10T08:08:17.112Z,11.22
2023-05-10T08:10:45.023Z,11.21
2023-05-10T08:13:12.520Z,11.26
2023-05-10T08:15:40.049Z,11.42
2023-05-10T08:18:07.889Z,11.46
2023-05-10T08:20:36.806Z,11.49
2023-05-10T08:23:04.473Z,11.59
2023-05-10T08:25:32.080Z,11.62
2023-05-10T08:27:59.856Z,11.70
2023-05-10T08:30:27.388Z,11.77
2023-05-10T08:33:01.084Z,11.72
2023-05-10T08:35:28.652Z,11.84
2023-05-10T08:37:57.528Z,11.87
2023-05-10T08:40:26.276Z,11.87
2023-05-10T08:42:57.881Z,11.88
2023-05-10T08:45:25.643Z,11.97
2023-05-10T08:47:54.261Z,11.92
2023-05-10T08:50:22.866Z,11.87
2023-05-10T08:52:55.251Z,11.94
2023-05-10T08:55:25.378Z,11.85
2023-05-10T08:57:53.045Z,11.86
2023-05-10T09:00:22.103Z,11.92
2023-05-10T09:02:51.189Z,11.89
2023-05-10T09:05:19.152Z,11.87
2023-05-10T09:07:47.126Z,11.88
2023-05-10T09:10:15.241Z,11.79
2023-05-10T09:12:46.223Z,11.82
2023-05-10T09:15:15.944Z,11.77
2023-05-10T09:17:44.277Z,11.82
2023-05-10T09:20:12.149Z,11.88
2023-05-10T09:22:39.848Z,11.86
2023-05-10T09:25:08.826Z,11.93
2023-05-10T09:27:36.831Z,11.88
2023-05-10T09:30:07.754Z,11.94
2023-05-10T09:32:39.493Z,11.98
2023-05-10T09:35:10.965Z,11.98
2023-05-10T09:37:38.506Z,12.03
2023-05-10T09:40:10.132Z,12.03
2023-05-10T09:42:37.652Z,12.03
2023-05-10T09:45:07.839Z,11.96
2023-05-10T09:47:36.087Z,12.01
2023-05-10T09:50:05.471Z,11.99
2023-05-10T09:52:33.820Z,12.10
2023-05-10T09:55:01.425Z,12.06
2023-05-10T09:57:28.968Z,12.13
2023-05-10T09:59:58.421Z,12.15
2023-05-10T10:02:31.547Z,12.09
2023-05-10T10:04:59.390Z,12.10
2023-05-10T10:07:28.114Z,12.13
2023-05-10T10:09:55.785Z,12.18
2023-05-10T10:12:23.338Z,12.30
2023-05-10T10:14:51.829Z,12.37
2023-05-10T10:17:19.535Z,12.33
2023-05-10T10:19:48.916Z,12.36
2023-05-10T10:22:16.434Z,12.38
2023-05-10T10:24:44.007Z,12.38
2023-05-10T10:27:23.653Z,12.48
2023-05-10T10:29:58.368Z,12.44
2023-05-10T10:32:29.827Z,12.52
2023-05-10T10:34:58.917Z,12.58
2023-05-10T10:37:43.304Z,12.57
2023-05-10T10:40:24.454Z,12.70
2023-05-10T10:42:52.199Z,12.75
2023-05-10T10:45:19.987Z,12.82
2023-05-10T10:47:47.855Z,12.90
2023-05-10T10:50:17.256Z,12.93
2023-05-10T10:52:45.558Z,12.93
2023-05-10T10:55:14.546Z,12.97
2023-05-10T10:57:47.156Z,13.05
2023-05-10T11:00:27.044Z,13.14
2023-05-10T11:02:56.220Z,13.27
2023-05-10T11:05:44.179Z,13.35
2023-05-10T11:08:14.138Z,13.38
2023-05-10T11:10:42.672Z,13.33
2023-05-10T11:13:11.169Z,13.36
2023-05-10T11:15:40.304Z,13.30
2023-05-10T11:18:20.835Z,13.37
2023-05-10T11:20:53.921Z,13.45
2023-05-10T11:23:22.276Z,13.51
2023-05-10T11:25:50.826Z,13.52
2023-05-10T11:28:19.640Z,13.57
2023-05-10T11:30:47.570Z,13.65
2023-05-10T11:33:20.325Z,13.71
2023-05-10T11:35:48.297Z,13.72
2023-05-10T11:38:17.404Z,13.83
2023-05-10T11:40:45.371Z,14.00
2023-05-10T11:43:13.280Z,14.16
2023-05-10T11:45:43.136Z,14.32
2023-05-10T11:48:10.689Z,14.37
2023-05-10T11:50:38.300Z,14.26
2023-05-10T11:53:06.315Z,14.29
2023-05-10T11:55:36.693Z,14.39
2023-05-10T11:58:04.643Z,14.43
2023-05-10T12:00:32.506Z,14.54
2023-05-10T12:03:02.622Z,14.57
2023-05-10T12:05:30.651Z,14.51
2023-05-10T12:08:12.733Z,14.49
2023-05-10T12:10:41.658Z,14.58
2023-05-10T12:13:13.340Z,14.67
2023-05-10T12:15:40.893Z,14.60
2023-05-10T12:18:11.353Z,14.61
2023-05-10T12:20:39.702Z,14.76
2023-05-10T12:23:10.509Z,14.85
2023-05-10T12:25:40.073Z,14.84
2023-05-10T12:28:10.591Z,14.91
2023-05-10T12:30:38.449Z,15.04
2023-05-10T12:33:10.258Z,15.11
2023-05-10T12:35:46.426Z,15.17
2023-05-10T12:38:31.583Z,15.13
2023-05-10T12:41:00.250Z,15.11
2023-05-10T12:43:29.195Z,15.15
2023-05-10T12:45:56.721Z,15.10
2023-05-10T12:48:24.552Z,15.04
2023-05-10T12:50:52.090Z,15.00
2023-05-10T12:53:19.583Z,14.86
2023-05-10T12:55:47.166Z,14.65
2023-05-10T12:58:31.573Z,14.64
2023-05-10T13:01:03.846Z,14.58
2023-05-10T13:03:31.474Z,14.43
2023-05-10T13:05:59.115Z,14.40
2023-05-10T13:08:30.680Z,14.37
2023-05-10T13:10:58.173Z,14.37
2023-05-10T13:13:25.695Z,14.38
2023-05-10T13:15:53.195Z,14.36
2023-05-10T13:18:22.163Z,14.24
2023-05-10T13:20:50.571Z,14.26
2023-05-10T13:23:18.129Z,14.25
2023-05-10T13:25:45.626Z,14.28
2023-05-10T13:28:13.116Z,14.27
2023-05-10T13:30:40.603Z,14.12
2023-05-10T13:33:08.194Z,14.16
2023-05-10T13:35:37.124Z,14.28
2023-05-10T13:38:04.655Z,14.42
2023-05-10T13:40:32.238Z,14.46
2023-05-10T13:42:59.785Z,14.55
2023-05-10T13:45:27.280Z,14.65
2023-05-10T13:47:55.098Z,14.71
2023-05-10T13:50:22.649Z,14.79
2023-05-10T13:52:51.509Z,14.79
2023-05-10T13:55:19.428Z,14.73
2023-05-10T13:57:47.283Z,14.75
2023-05-10T14:00:15.692Z,14.82
2023-05-10T14:02:43.315Z,14.83
2023-05-10T14:05:11.126Z,14.75
2023-05-10T14:07:38.895Z,14.76
2023-05-10T14:10:08.435Z,14.73
2023-05-10T14:12:36.050Z,14.62
2023-05-10T14:15:03.801Z,14.56
2023-05-10T14:17:31.430Z,14.61
2023-05-10T14:19:59.109Z,14.60
2023-05-10T14:22:26.774Z,14.65
2023-05-10T14:24:54.313Z,14.67
2023-05-10T14:27:24.310Z,14.67
2023-05-10T14:29:52.012Z,14.67
2023-05-10T14:32:19.692Z,14.73
2023-05-10T14:34:47.252Z,14.72
2023-05-10T14:37:15.995Z,14.70
2023-05-10T14:39:43.738Z,14.71
2023-05-10T14:42:12.024Z,14.61
2023-05-10T14:44:40.828Z,14.53
2023-05-10T14:47:09.425Z,14.47
2023-05-10T14:49:39.072Z,14.42
2023-05-10T14:52:06.580Z,14.43
2023-05-10T14:54:34.427Z,14.50
2023-05-10T14:57:02.312Z,14.51
2023-05-10T14:59:29.781Z,14.58
2023-05-10T15:01:59.005Z,14.65
2023-05-10T15:04:28.545Z,14.71
2023-05-10T15:07:00.199Z,14.72
2023-05-10T15:09:28.444Z,14.72
2023-05-10T15:11:56.089Z,14.73
2023-05-10T15:14:23.837Z,14.74
2023-05-10T15:16:51.366Z,14.74
2023-05-10T15:19:21.962Z,14.75
2023-05-10T15:21:49.488Z,14.75
2023-05-10T15:24:16.966Z,14.56
2023-05-10T15:26:44.649Z,14.51
2023-05-10T15:29:12.204Z,14.60
2023-05-10T15:31:40.479Z,14.64
2023-05-10T15:34:08.095Z,14.70
2023-05-10T15:36:36.961Z,14.76
2023-05-10T15:39:04.893Z,14.82
2023-05-10T15:41:32.459Z,14.82
2023-05-10T15:44:00.585Z,14.82
2023-05-10T15:46:28.697Z,14.83
2023-05-10T15:48:57.120Z,14.77
2023-05-10T15:51:24.642Z,14.86
2023-05-10T15:54:05.834Z,14.82
2023-05-10T15:56:34.982Z,14.73
2023-05-10T15:59:02.493Z,14.60
2023-05-10T16:01:30.799Z,14.68
2023-05-10T16:03:58.308Z,14.64
2023-05-10T16:06:26.014Z,14.64
2023-05-10T16:08:55.025Z,14.68
2023-05-10T16:11:22.705Z,14.73
2023-05-10T16:13:50.235Z,14.71
2023-05-10T16:16:18.021Z,14.68
2023-05-10T16:18:45.960Z,14.67
2023-05-10T16:21:13.566Z,14.64
2023-05-10T16:23:41.237Z,14.65
2023-05-10T16:26:13.477Z,14.72
2023-05-10T16:28:41.324Z,14.74
2023-05-10T16:31:09.017Z,14.68
2023-05-10T16:33:37.317Z,14.68
2023-05-10T16:36:06.121Z,14.70
2023-05-10T16:38:33.654Z,14.73
2023-05-10T16:41:03.530Z,14.66
2023-05-10T16:43:33.388Z,14.63
2023-05-10T16:46:00.930Z,14.61
2023-05-10T16:48:28.796Z,14.56
2023-05-10T16:50:56.343Z,14.49
2023-05-10T16:53:23.840Z,14.53
2023-05-10T16:55:51.420Z,14.49
2023-05-10T16:58:18.945Z,14.45
2023-05-10T17:00:48.385Z,14.48
2023-05-10T17:03:15.977Z,14.50
2023-05-10T17:05:43.518Z,14.46
2023-05-10T17:08:11.617Z,14.44
2023-05-10T17:10:40.988Z,14.45
2023-05-10T17:13:10.393Z,14.41
2023-05-10T17:15:38.496Z,14.46
2023-05-10T17:18:08.028Z,14.40
2023-05-10T17:20:35.628Z,14.32
2023-05-10T17:23:03.264Z,14.24
2023-05-10T17:25:30.752Z,14.26
2023-05-10T17:27:58.237Z,14.29
2023-05-10T17:30:28.078Z,14.33
2023-05-10T17:32:56.301Z,14.36
2023-05-10T17:35:28.111Z,14.33
2023-05-10T17:37:55.779Z,14.36
2023-05-10T17:40:23.320Z,14.35
2023-05-10T17:42:51.983Z,14.28
2023-05-10T17:45:21.790Z,14.24
2023-05-10T17:47:49.460Z,14.19
2023-05-10T17:50:17.034Z,14.19
2023-05-10T17:52:46.806Z,14.15
2023-05-10T17:55:14.517Z,14.10
2023-05-10T17:57:42.198Z,14.05
2023-05-10T18:00:10.946Z,14.09
2023-05-10T18:02:41.320Z,14.07
2023-05-10T18:05:09.516Z,14.01
2023-05-10T18:07:37.198Z,13.93
2023-05-10T18:10:08.918Z,14.00
2023-05-10T18:12:36.448Z,14.03
2023-05-10T18:15:04.735Z,13.93
2023-05-10T18:17:33.491Z,13.80
2023-05-10T18:20:13.566Z,13.80
2023-05-10T18:22:41.160Z,13.81
2023-05-10T18:25:10.743Z,13.78
2023-05-10T18:27:39.373Z,13.80
2023-05-10T18:30:10.043Z,13.76
2023-05-10T18:32:38.449Z,13.75
2023-05-10T18:35:06.918Z,13.63
2023-05-10T18:38:00.613Z,13.53
2023-05-10T18:40:29.629Z,13.57
2023-05-10T18:42:58.218Z,13.52
2023-05-10T18:45:25.720Z,13.56
2023-05-10T18:47:53.285Z,13.53
2023-05-10T18:50:20.944Z,13.59
2023-05-10T18:52:50.585Z,13.51
2023-05-10T18:55:18.462Z,13.59
2023-05-10T18:57:49.563Z,13.57
2023-05-10T19:00:18.632Z,13.57
2023-05-10T19:02:48.304Z,13.58
2023-05-10T19:05:16.581Z,13.67
2023-05-10T19:07:44.333Z,13.58
2023-05-10T19:10:13.415Z,13.57
2023-05-10T19:12:42.186Z,13.58
2023-05-10T19:15:11.730Z,13.65
2023-05-10T19:17:41.102Z,13.62
2023-05-10T19:20:10.572Z,13.60
2023-05-10T19:22:54.186Z,13.63
2023-05-10T19:25:29.324Z,13.50
2023-05-10T19:27:57.780Z,13.46
2023-05-10T19:30:28.619Z,13.34
2023-05-10T19:32:56.415Z,13.39
2023-05-10T19:35:24.477Z,13.39
2023-05-10T19:37:52.204Z,13.47
2023-05-10T19:40:19.676Z,13.37
2023-05-10T19:42:47.293Z,13.41
2023-05-10T19:45:15.789Z,13.50
2023-05-10T19:47:44.989Z,13.41
2023-05-10T19:50:13.873Z,13.31
2023-05-10T19:52:41.460Z,13.29
2023-05-10T19:55:09.476Z,13.27
2023-05-10T19:57:36.968Z,13.32
2023-05-10T20:00:06.690Z,13.33
2023-05-10T20:02:38.768Z,13.34
2023-05-10T20:05:08.862Z,13.34
2023-05-10T20:07:37.428Z,13.36
2023-05-10T20:10:05.440Z,13.48
2023-05-10T20:12:33.042Z,13.39
2023-05-10T20:15:00.589Z,13.41
2023-05-10T20:17:28.140Z,13.29
2023-05-10T20:19:55.738Z,13.21
2023-05-10T20:22:24.715Z,13.29
2023-05-10T20:24:53.798Z,13.37
2023-05-10T20:27:23.252Z,13.39
2023-05-10T20:29:50.715Z,13.39
2023-05-10T20:32:18.189Z,13.47
2023-05-10T20:34:45.706Z,13.54
2023-05-10T20:37:13.258Z,13.42
2023-05-10T20:39:42.080Z,13.39
2023-05-10T20:42:09.578Z,13.36
2023-05-10T20:44:37.287Z,13.36
2023-05-10T20:47:04.821Z,13.40
2023-05-10T20:49:32.346Z,13.42
2023-05-10T20:52:00.393Z,13.49
2023-05-10T20:54:29.121Z,13.42
2023-05-10T20:56:58.020Z,13.40
2023-05-10T20:59:25.532Z,13.42
2023-05-10T21:01:53.116Z,13.47
2023-05-10T21:04:21.248Z,13.45
2023-05-10T21:06:48.807Z,13.43
2023-05-10T21:09:17.008Z,13.38
2023-05-10T21:11:44.676Z,13.38
2023-05-10T21:14:13.472Z,13.36
2023-05-10T21:16:41.225Z,13.39
2023-05-10T21:19:08.933Z,13.47
2023-05-10T21:21:36.643Z,13.48
2023-05-10T21:24:04.567Z,13.44
2023-05-10T21:26:32.169Z,13.40
2023-05-10T21:28:59.655Z,13.42
2023-05-10T21:31:28.535Z,13.43
2023-05-10T21:33:56.920Z,13.35
2023-05-10T21:36:26.052Z,13.38
2023-05-10T21:38:55.290Z,13.37
2023-05-10T21:41:22.806Z,13.25
2023-05-10T21:43:50.330Z,13.24
2023-05-10T21:46:17.877Z,13.25
2023-05-10T21:48:46.921Z,13.23
2023-05-10T21:51:15.453Z,13.22
2023-05-10T21:53:45.369Z,13.27
2023-05-10T21:56:12.906Z,13.36
2023-05-10T21:58:40.634Z,13.36
2023-05-10T22:01:08.248Z,13.42
2023-05-10T22:03:35.792Z,13.44
2023-05-10T22:06:05.190Z,13.42
2023-05-10T22:08:32.651Z,13.39
2023-05-10T22:11:00.148Z,13.44
2023-05-10T22:13:27.705Z,13.47
2023-05-10T22:15:55.218Z,13.46
2023-05-10T22:18:22.717Z,13.44
2023-05-10T22:20:50.268Z,13.44
2023-05-10T22:23:19.089Z,13.45
2023-05-10T22:25:46.576Z,13.45
2023-05-10T22:28:14.047Z,13.39
2023-05-10T22:30:42.446Z,13.39
2023-05-10T22:33:09.924Z,13.38
2023-05-10T22:35:37.438Z,13.38
2023-05-10T22:38:05.048Z,13.39
2023-05-10T22:40:33.855Z,13.35
2023-05-10T22:43:02.054Z,13.34
2023-05-10T22:45:29.574Z,13.34
2023-05-10T22:47:57.526Z,13.31
2023-05-10T22:50:25.084Z,13.29
2023-05-10T22:52:52.653Z,13.21
2023-05-10T22:55:20.364Z,13.14
2023-05-10T22:57:49.238Z,13.14
2023-05-10T23:00:17.628Z,13.14
2023-05-10T23:02:45.798Z,13.20
2023-05-10T23:05:13.726Z,13.23
2023-05-10T23:07:41.476Z,13.15
2023-05-10T23:10:09.446Z,13.19
2023-05-10T23:12:37.135Z,13.21
2023-05-10T23:15:07.126Z,13.25
2023-05-10T23:17:34.676Z,13.22
2023-05-10T23:20:02.236Z,13.03
2023-05-10T23:22:29.806Z,12.97
2023-05-10T23:24:57.408Z,13.03
2023-05-10T23:27:25.055Z,13.09
2023-05-10T23:29:55.581Z,13.04
2023-05-10T23:32:24.613Z,12.99
2023-05-10T23:34:52.152Z,12.97
2023-05-10T23:37:19.699Z,13.02
2023-05-10T23:39:47.711Z,13.06
2023-05-10T23:42:15.191Z,13.11
2023-05-10T23:44:42.656Z,13.17
2023-05-10T23:47:10.160Z,13.16
2023-05-10T23:49:41.967Z,13.17
2023-05-10T23:52:09.545Z,13.22
2023-05-10T23:54:37.043Z,13.23
2023-05-10T23:57:04.559Z,13.24
2023-05-10T23:59:32.058Z,13.22
